createdAt,value
2023-03-01T00:00:02.185Z,-1.5
2023-03-01T00:20:02.998Z,-1.7
2023-03-01T00:40:02.307Z,-1.8
2023-03-01T01:00:02.731Z,-1.9
2023-03-01T01:20:02.323Z,-2
2023-03-01T01:40:02.628Z,-2.2
2023-03-01T02:00:03.053Z,-2.2
2023-03-01T02:20:02.328Z,-2.5
2023-03-01T02:40:02.557Z,-2.6
2023-03-01T03:00:02.986Z,-2.7
2023-03-01T03:20:02.635Z,-2.8
2023-03-01T03:40:02.994Z,-3
2023-03-01T04:00:02.370Z,-3.1
2023-03-01T04:20:02.788Z,-3.2
2023-03-01T04:40:02.216Z,-3.2
2023-03-01T05:00:02.818Z,-3.5
2023-03-01T05:20:02.285Z,-3.4
2023-03-01T05:40:02.851Z,-3.7
2023-03-01T06:00:02.143Z,-3.7
2023-03-01T06:20:03.018Z,-3.6
2023-03-01T06:40:02.355Z,-3.6
2023-03-01T07:00:02.720Z,-3.2
2023-03-01T07:20:02.068Z,-2.8
2023-03-01T07:40:02.592Z,-2.2
2023-03-01T08:00:03.016Z,-1.6
2023-03-01T08:20:02.478Z,-0.4
2023-03-01T08:40:03.121Z,1.1
2023-03-01T09:00:02.642Z,2.7
2023-03-01T09:20:02.389Z,4.5
2023-03-01T09:40:02.693Z,6.4
2023-03-01T10:00:03.872Z,7.8
2023-03-01T10:20:02.617Z,8.7
2023-03-01T10:40:03.092Z,9.5
2023-03-01T11:00:03.668Z,10.1
2023-03-01T11:20:03.217Z,10.1
2023-03-01T11:40:02.570Z,10.7
2023-03-01T12:00:03.126Z,10.6
2023-03-01T12:20:02.486Z,10.1
2023-03-01T12:40:03.250Z,10.3
2023-03-01T13:00:03.933Z,10.1
2023-03-01T13:20:02.730Z,9.4
2023-03-01T13:40:02.497Z,8.5
2023-03-01T14:00:03.911Z,8.2
2023-03-01T14:20:03.132Z,8
2023-03-01T14:40:02.827Z,7.8
2023-03-01T15:00:02.711Z,7.8
2023-03-01T15:20:02.967Z,7.6
2023-03-01T15:40:02.687Z,7.4
2023-03-01T16:00:03.362Z,7.2
2023-03-01T16:20:02.677Z,7
2023-03-01T16:40:02.611Z,6.6
2023-03-01T17:00:02.795Z,5.9
2023-03-01T17:20:04.649Z,5.3
2023-03-01T17:40:02.412Z,4.8
2023-03-01T18:00:03.242Z,4.2
2023-03-01T18:20:02.655Z,3.8
2023-03-01T18:40:03.165Z,3.3
2023-03-01T19:00:03.328Z,2.9
2023-03-01T19:20:03.412Z,2.5
2023-03-01T19:40:03.340Z,2.2
2023-03-01T20:00:03.400Z,1.9
2023-03-01T20:20:02.862Z,1.7
2023-03-01T20:40:02.554Z,1.4
2023-03-01T21:00:03.536Z,1.2
2023-03-01T21:20:02.564Z,0.9
2023-03-01T21:40:03.010Z,0.8
2023-03-01T22:00:02.516Z,0.6
2023-03-01T22:20:02.287Z,0.4
2023-03-01T22:40:03.014Z,0.3
2023-03-01T23:00:02.803Z,0.1
2023-03-01T23:20:02.655Z,0
2023-03-01T23:40:03.180Z,-0.2
